sensor_id;sensor_type;location;lat;lon;timestamp;P1;durP1;ratioP1;P2;durP2;ratioP2
23169;SDS011;11753;43.144;24.714;2023-03-13T00:00:02;6.03;;;4.63;;
23169;SDS011;11753;43.144;24.714;2023-03-13T00:02:24;6.47;;;4.80;;
23169;SDS011;11753;43.144;24.714;2023-03-13T00:03:25;6.65;;;4.90;;
23169;SDS011;11753;43.144;24.714;2023-03-13T00:04:27;8.55;;;5.30;;
23169;SDS011;11753;43.144;24.714;2023-03-13T00:05:28;7.53;;;5.28;;
23169;SDS011;11753;43.144;24.714;2023-03-13T00:06:30;6.38;;;4.90;;
23169;SDS011;11753;43.144;24.714;2023-03-13T00:07:33;7.78;;;4.65;;
23169;SDS011;11753;43.144;24.714;2023-03-13T00:08:34;7.35;;;5.00;;
23169;SDS011;11753;43.144;24.714;2023-03-13T00:09:35;5.80;;;5.10;;
23169;SDS011;11753;43.144;24.714;2023-03-13T00:10:36;6.40;;;4.82;;
23169;SDS011;11753;43.144;24.714;2023-03-13T00:11:41;6.82;;;5.10;;
23169;SDS011;11753;43.144;24.714;2023-03-13T00:12:42;7.25;;;5.07;;
23169;SDS011;11753;43.144;24.714;2023-03-13T00:13:43;7.03;;;5.10;;
23169;SDS011;11753;43.144;24.714;2023-03-13T00:14:44;7.10;;;5.05;;
23169;SDS011;11753;43.144;24.714;2023-03-13T00:15:45;6.50;;;4.88;;
23169;SDS011;11753;43.144;24.714;2023-03-13T00:16:46;7.10;;;5.43;;
23169;SDS011;11753;43.144;24.714;2023-03-13T00:17:47;7.30;;;4.95;;
23169;SDS011;11753;43.144;24.714;2023-03-13T00:18:49;8.45;;;5.47;;
23169;SDS011;11753;43.144;24.714;2023-03-13T00:19:51;7.00;;;5.40;;
23169;SDS011;11753;43.144;24.714;2023-03-13T00:22:25;8.10;;;5.63;;
23169;SDS011;11753;43.144;24.714;2023-03-13T00:23:26;5.95;;;4.72;;
23169;SDS011;11753;43.144;24.714;2023-03-13T00:24:28;5.85;;;4.68;;
23169;SDS011;11753;43.144;24.714;2023-03-13T00:25:29;7.93;;;4.80;;
23169;SDS011;11753;43.144;24.714;2023-03-13T00:26:30;6.57;;;4.95;;
23169;SDS011;11753;43.144;24.714;2023-03-13T00:27:32;6.07;;;4.70;;
23169;SDS011;11753;43.144;24.714;2023-03-13T00:28:34;6.93;;;5.07;;
23169;SDS011;11753;43.144;24.714;2023-03-13T00:29:37;6.88;;;4.97;;
23169;SDS011;11753;43.144;24.714;2023-03-13T00:30:38;8.23;;;5.20;;
23169;SDS011;11753;43.144;24.714;2023-03-13T00:31:39;7.13;;;5.00;;
23169;SDS011;11753;43.144;24.714;2023-03-13T00:32:40;11.10;;;5.72;;
23169;SDS011;11753;43.144;24.714;2023-03-13T00:33:43;7.47;;;5.00;;
23169;SDS011;11753;43.144;24.714;2023-03-13T00:34:46;7.00;;;4.90;;
23169;SDS011;11753;43.144;24.714;2023-03-13T00:35:46;7.38;;;4.90;;
23169;SDS011;11753;43.144;24.714;2023-03-13T00:36:49;7.72;;;4.93;;
23169;SDS011;11753;43.144;24.714;2023-03-13T00:37:50;5.93;;;4.90;;
23169;SDS011;11753;43.144;24.714;2023-03-13T00:38:52;6.95;;;5.28;;
23169;SDS011;11753;43.144;24.714;2023-03-13T00:39:54;7.68;;;5.18;;
23169;SDS011;11753;43.144;24.714;2023-03-13T00:41:14;6.25;;;4.88;;
23169;SDS011;11753;43.144;24.714;2023-03-13T00:42:17;6.97;;;5.47;;
23169;SDS011;11753;43.144;24.714;2023-03-13T00:43:18;7.18;;;5.05;;
23169;SDS011;11753;43.144;24.714;2023-03-13T00:44:19;8.55;;;5.82;;
23169;SDS011;11753;43.144;24.714;2023-03-13T00:45:20;7.47;;;5.50;;
23169;SDS011;11753;43.144;24.714;2023-03-13T00:46:22;7.72;;;5.30;;
23169;SDS011;11753;43.144;24.714;2023-03-13T00:47:25;8.05;;;5.53;;
23169;SDS011;11753;43.144;24.714;2023-03-13T00:48:26;7.53;;;5.40;;
23169;SDS011;11753;43.144;24.714;2023-03-13T00:49:27;6.20;;;5.30;;
23169;SDS011;11753;43.144;24.714;2023-03-13T00:50:28;7.82;;;5.38;;
23169;SDS011;11753;43.144;24.714;2023-03-13T00:51:28;7.03;;;4.95;;
23169;SDS011;11753;43.144;24.714;2023-03-13T00:52:30;7.20;;;5.10;;
23169;SDS011;11753;43.144;24.714;2023-03-13T00:53:31;7.90;;;5.07;;
23169;SDS011;11753;43.144;24.714;2023-03-13T00:54:32;7.82;;;5.68;;
23169;SDS011;11753;43.144;24.714;2023-03-13T00:55:33;7.18;;;5.65;;
23169;SDS011;11753;43.144;24.714;2023-03-13T00:56:34;7.65;;;5.57;;
23169;SDS011;11753;43.144;24.714;2023-03-13T00:57:36;6.90;;;5.25;;
23169;SDS011;11753;43.144;24.714;2023-03-13T00:58:38;7.68;;;5.53;;
23169;SDS011;11753;43.144;24.714;2023-03-13T00:59:40;7.25;;;5.60;;
23169;SDS011;11753;43.144;24.714;2023-03-13T01:00:41;7.70;;;5.50;;
23169;SDS011;11753;43.144;24.714;2023-03-13T01:01:42;7.35;;;5.72;;
23169;SDS011;11753;43.144;24.714;2023-03-13T01:02:43;7.22;;;5.20;;
23169;SDS011;11753;43.144;24.714;2023-03-13T01:03:45;7.68;;;5.28;;
23169;SDS011;11753;43.144;24.714;2023-03-13T01:04:49;6.97;;;5.68;;
23169;SDS011;11753;43.144;24.714;2023-03-13T01:05:59;8.80;;;5.82;;
23169;SDS011;11753;43.144;24.714;2023-03-13T01:07:02;8.35;;;6.45;;
23169;SDS011;11753;43.144;24.714;2023-03-13T01:08:03;8.07;;;6.18;;
23169;SDS011;11753;43.144;24.714;2023-03-13T01:09:04;8.38;;;6.03;;
23169;SDS011;11753;43.144;24.714;2023-03-13T01:10:06;7.57;;;5.78;;
23169;SDS011;11753;43.144;24.714;2023-03-13T01:12:11;8.23;;;6.28;;
23169;SDS011;11753;43.144;24.714;2023-03-13T01:13:12;7.78;;;6.10;;
23169;SDS011;11753;43.144;24.714;2023-03-13T01:14:14;7.95;;;6.38;;
23169;SDS011;11753;43.144;24.714;2023-03-13T01:15:16;9.07;;;6.07;;
23169;SDS011;11753;43.144;24.714;2023-03-13T01:16:19;7.70;;;5.70;;
23169;SDS011;11753;43.144;24.714;2023-03-13T01:17:21;8.65;;;6.25;;
23169;SDS011;11753;43.144;24.714;2023-03-13T01:18:22;9.18;;;6.15;;
23169;SDS011;11753;43.144;24.714;2023-03-13T01:19:23;8.93;;;6.50;;
23169;SDS011;11753;43.144;24.714;2023-03-13T01:20:24;7.32;;;5.50;;
23169;SDS011;11753;43.144;24.714;2023-03-13T01:21:24;7.82;;;5.88;;
23169;SDS011;11753;43.144;24.714;2023-03-13T01:22:25;7.82;;;5.68;;
23169;SDS011;11753;43.144;24.714;2023-03-13T01:23:26;11.00;;;6.20;;
23169;SDS011;11753;43.144;24.714;2023-03-13T01:24:28;9.73;;;6.07;;
23169;SDS011;11753;43.144;24.714;2023-03-13T01:25:28;7.63;;;5.63;;
23169;SDS011;11753;43.144;24.714;2023-03-13T01:26:29;8.35;;;5.93;;
23169;SDS011;11753;43.144;24.714;2023-03-13T01:27:30;8.07;;;5.60;;
23169;SDS011;11753;43.144;24.714;2023-03-13T01:28:31;6.78;;;5.43;;
23169;SDS011;11753;43.144;24.714;2023-03-13T01:29:33;9.05;;;5.93;;
23169;SDS011;11753;43.144;24.714;2023-03-13T01:30:34;7.90;;;5.47;;
23169;SDS011;11753;43.144;24.714;2023-03-13T01:31:35;7.68;;;5.40;;
23169;SDS011;11753;43.144;24.714;2023-03-13T01:32:36;8.10;;;5.78;;
23169;SDS011;11753;43.144;24.714;2023-03-13T01:33:37;9.45;;;6.10;;
23169;SDS011;11753;43.144;24.714;2023-03-13T01:34:38;7.15;;;5.43;;
23169;SDS011;11753;43.144;24.714;2023-03-13T01:35:40;7.93;;;5.90;;
23169;SDS011;11753;43.144;24.714;2023-03-13T01:36:40;8.35;;;5.88;;
23169;SDS011;11753;43.144;24.714;2023-03-13T01:37:43;9.90;;;5.90;;
23169;SDS011;11753;43.144;24.714;2023-03-13T01:38:46;8.00;;;6.25;;
23169;SDS011;11753;43.144;24.714;2023-03-13T01:39:49;10.25;;;6.22;;
23169;SDS011;11753;43.144;24.714;2023-03-13T01:40:49;8.40;;;6.32;;
23169;SDS011;11753;43.144;24.714;2023-03-13T01:41:50;8.07;;;6.05;;
23169;SDS011;11753;43.144;24.714;2023-03-13T01:42:52;9.60;;;6.30;;
23169;SDS011;11753;43.144;24.714;2023-03-13T01:43:57;8.27;;;5.70;;
23169;SDS011;11753;43.144;24.714;2023-03-13T01:44:59;8.13;;;5.53;;
23169;SDS011;11753;43.144;24.714;2023-03-13T01:47:06;7.43;;;5.78;;
23169;SDS011;11753;43.144;24.714;2023-03-13T01:48:07;8.93;;;5.65;;
23169;SDS011;11753;43.144;24.714;2023-03-13T01:50:36;6.65;;;5.20;;
23169;SDS011;11753;43.144;24.714;2023-03-13T01:52:46;7.30;;;5.72;;
23169;SDS011;11753;43.144;24.714;2023-03-13T01:53:49;6.88;;;5.75;;
23169;SDS011;11753;43.144;24.714;2023-03-13T01:54:59;9.32;;;6.25;;
23169;SDS011;11753;43.144;24.714;2023-03-13T01:56:04;7.65;;;5.43;;
23169;SDS011;11753;43.144;24.714;2023-03-13T01:58:12;8.48;;;5.75;;
23169;SDS011;11753;43.144;24.714;2023-03-13T01:59:14;10.50;;;6.18;;
23169;SDS011;11753;43.144;24.714;2023-03-13T02:00:25;10.30;;;6.57;;
23169;SDS011;11753;43.144;24.714;2023-03-13T02:01:30;7.18;;;5.80;;
23169;SDS011;11753;43.144;24.714;2023-03-13T02:02:30;7.38;;;6.10;;
23169;SDS011;11753;43.144;24.714;2023-03-13T02:03:31;8.05;;;6.10;;
23169;SDS011;11753;43.144;24.714;2023-03-13T02:04:35;8.70;;;6.32;;
23169;SDS011;11753;43.144;24.714;2023-03-13T02:05:40;9.35;;;6.45;;
23169;SDS011;11753;43.144;24.714;2023-03-13T02:06:44;8.48;;;6.35;;
23169;SDS011;11753;43.144;24.714;2023-03-13T02:08:10;10.70;;;6.63;;
23169;SDS011;11753;43.144;24.714;2023-03-13T02:09:19;7.28;;;6.10;;
23169;SDS011;11753;43.144;24.714;2023-03-13T02:10:24;9.35;;;6.47;;
23169;SDS011;11753;43.144;24.714;2023-03-13T02:11:35;10.93;;;6.60;;
23169;SDS011;11753;43.144;24.714;2023-03-13T02:12:43;8.77;;;6.80;;
23169;SDS011;11753;43.144;24.714;2023-03-13T02:13:45;9.85;;;6.97;;
23169;SDS011;11753;43.144;24.714;2023-03-13T02:14:48;10.70;;;7.28;;
23169;SDS011;11753;43.144;24.714;2023-03-13T02:15:51;9.60;;;6.88;;
23169;SDS011;11753;43.144;24.714;2023-03-13T02:16:52;8.45;;;6.50;;
23169;SDS011;11753;43.144;24.714;2023-03-13T02:17:54;8.32;;;6.78;;
23169;SDS011;11753;43.144;24.714;2023-03-13T02:18:55;9.73;;;6.72;;
23169;SDS011;11753;43.144;24.714;2023-03-13T02:19:57;8.88;;;6.95;;
23169;SDS011;11753;43.144;24.714;2023-03-13T02:21:01;9.68;;;7.13;;
23169;SDS011;11753;43.144;24.714;2023-03-13T02:23:39;9.98;;;6.70;;
23169;SDS011;11753;43.144;24.714;2023-03-13T02:26:23;8.57;;;6.35;;
23169;SDS011;11753;43.144;24.714;2023-03-13T02:27:24;8.20;;;6.22;;
23169;SDS011;11753;43.144;24.714;2023-03-13T02:28:28;8.13;;;6.43;;
23169;SDS011;11753;43.144;24.714;2023-03-13T02:29:32;8.90;;;6.93;;
23169;SDS011;11753;43.144;24.714;2023-03-13T02:30:33;9.20;;;6.18;;
23169;SDS011;11753;43.144;24.714;2023-03-13T02:31:34;9.63;;;7.32;;
23169;SDS011;11753;43.144;24.714;2023-03-13T02:32:35;7.28;;;5.97;;
23169;SDS011;11753;43.144;24.714;2023-03-13T02:33:38;8.40;;;6.43;;
23169;SDS011;11753;43.144;24.714;2023-03-13T02:34:40;7.85;;;6.43;;
23169;SDS011;11753;43.144;24.714;2023-03-13T02:35:43;8.15;;;6.75;;
23169;SDS011;11753;43.144;24.714;2023-03-13T02:36:46;7.93;;;6.35;;
23169;SDS011;11753;43.144;24.714;2023-03-13T02:37:53;8.85;;;6.93;;
23169;SDS011;11753;43.144;24.714;2023-03-13T02:38:59;9.00;;;6.07;;
23169;SDS011;11753;43.144;24.714;2023-03-13T02:40:05;8.40;;;6.53;;
23169;SDS011;11753;43.144;24.714;2023-03-13T02:41:14;7.40;;;5.22;;
23169;SDS011;11753;43.144;24.714;2023-03-13T02:42:17;10.63;;;6.53;;
23169;SDS011;11753;43.144;24.714;2023-03-13T02:43:22;8.73;;;6.82;;
23169;SDS011;11753;43.144;24.714;2023-03-13T02:44:29;8.18;;;6.80;;
23169;SDS011;11753;43.144;24.714;2023-03-13T02:45:30;8.45;;;6.38;;
23169;SDS011;11753;43.144;24.714;2023-03-13T02:46:35;8.02;;;6.07;;
23169;SDS011;11753;43.144;24.714;2023-03-13T02:47:44;9.23;;;6.78;;
23169;SDS011;11753;43.144;24.714;2023-03-13T02:48:49;8.05;;;6.28;;
23169;SDS011;11753;43.144;24.714;2023-03-13T02:49:53;11.05;;;6.50;;
23169;SDS011;11753;43.144;24.714;2023-03-13T02:50:54;8.85;;;6.70;;
23169;SDS011;11753;43.144;24.714;2023-03-13T02:51:56;9.45;;;6.95;;
23169;SDS011;11753;43.144;24.714;2023-03-13T02:53:04;8.57;;;6.82;;
23169;SDS011;11753;43.144;24.714;2023-03-13T02:54:11;10.02;;;6.85;;
23169;SDS011;11753;43.144;24.714;2023-03-13T02:55:23;8.73;;;6.45;;
23169;SDS011;11753;43.144;24.714;2023-03-13T02:56:29;8.27;;;5.68;;
23169;SDS011;11753;43.144;24.714;2023-03-13T02:57:33;8.98;;;6.82;;
23169;SDS011;11753;43.144;24.714;2023-03-13T02:58:37;7.60;;;6.07;;
23169;SDS011;11753;43.144;24.714;2023-03-13T02:59:39;8.65;;;6.28;;
23169;SDS011;11753;43.144;24.714;2023-03-13T03:00:40;10.77;;;7.88;;
23169;SDS011;11753;43.144;24.714;2023-03-13T03:01:40;13.65;;;11.70;;
23169;SDS011;11753;43.144;24.714;2023-03-13T03:02:41;10.25;;;7.65;;
23169;SDS011;11753;43.144;24.714;2023-03-13T03:03:42;11.80;;;7.85;;
23169;SDS011;11753;43.144;24.714;2023-03-13T03:04:43;10.55;;;6.93;;
23169;SDS011;11753;43.144;24.714;2023-03-13T03:05:44;8.63;;;6.72;;
23169;SDS011;11753;43.144;24.714;2023-03-13T03:06:45;10.70;;;7.22;;
23169;SDS011;11753;43.144;24.714;2023-03-13T03:07:46;9.80;;;7.80;;
23169;SDS011;11753;43.144;24.714;2023-03-13T03:08:48;46.05;;;27.98;;
23169;SDS011;11753;43.144;24.714;2023-03-13T03:09:49;14.05;;;9.70;;
23169;SDS011;11753;43.144;24.714;2023-03-13T03:10:50;103.63;;;60.28;;
23169;SDS011;11753;43.144;24.714;2023-03-13T03:11:51;46.78;;;28.65;;
23169;SDS011;11753;43.144;24.714;2023-03-13T03:12:52;11.75;;;7.80;;
23169;SDS011;11753;43.144;24.714;2023-03-13T03:13:53;51.17;;;31.25;;
23169;SDS011;11753;43.144;24.714;2023-03-13T03:14:57;193.35;;;114.80;;
23169;SDS011;11753;43.144;24.714;2023-03-13T03:15:58;102.47;;;63.25;;
23169;SDS011;11753;43.144;24.714;2023-03-13T03:16:58;23.55;;;15.35;;
23169;SDS011;11753;43.144;24.714;2023-03-13T03:17:59;10.10;;;7.07;;
23169;SDS011;11753;43.144;24.714;2023-03-13T03:19:00;10.95;;;7.60;;
23169;SDS011;11753;43.144;24.714;2023-03-13T03:20:02;12.40;;;8.95;;
23169;SDS011;11753;43.144;24.714;2023-03-13T03:21:07;14.88;;;9.38;;
23169;SDS011;11753;43.144;24.714;2023-03-13T03:22:08;9.77;;;7.07;;
23169;SDS011;11753;43.144;24.714;2023-03-13T03:23:10;11.77;;;8.60;;
23169;SDS011;11753;43.144;24.714;2023-03-13T03:24:11;22.65;;;16.52;;
23169;SDS011;11753;43.144;24.714;2023-03-13T03:25:11;24.95;;;15.85;;
23169;SDS011;11753;43.144;24.714;2023-03-13T03:26:13;15.93;;;11.25;;
23169;SDS011;11753;43.144;24.714;2023-03-13T03:27:14;10.25;;;8.02;;
23169;SDS011;11753;43.144;24.714;2023-03-13T03:28:15;9.50;;;7.38;;
23169;SDS011;11753;43.144;24.714;2023-03-13T03:29:15;10.85;;;7.07;;
23169;SDS011;11753;43.144;24.714;2023-03-13T03:30:16;10.65;;;8.32;;
23169;SDS011;11753;43.144;24.714;2023-03-13T03:31:17;10.23;;;7.70;;
23169;SDS011;11753;43.144;24.714;2023-03-13T03:32:18;9.10;;;7.40;;
23169;SDS011;11753;43.144;24.714;2023-03-13T03:33:21;16.45;;;14.50;;
23169;SDS011;11753;43.144;24.714;2023-03-13T03:34:23;8.25;;;6.65;;
23169;SDS011;11753;43.144;24.714;2023-03-13T03:35:24;7.47;;;5.78;;
23169;SDS011;11753;43.144;24.714;2023-03-13T03:36:25;9.35;;;6.05;;
23169;SDS011;11753;43.144;24.714;2023-03-13T03:37:26;6.75;;;5.55;;
23169;SDS011;11753;43.144;24.714;2023-03-13T03:38:27;8.43;;;6.07;;
23169;SDS011;11753;43.144;24.714;2023-03-13T03:39:28;8.30;;;5.97;;
23169;SDS011;11753;43.144;24.714;2023-03-13T03:40:29;8.25;;;5.90;;
23169;SDS011;11753;43.144;24.714;2023-03-13T03:41:30;7.68;;;6.07;;
23169;SDS011;11753;43.144;24.714;2023-03-13T03:42:31;7.68;;;5.93;;
23169;SDS011;11753;43.144;24.714;2023-03-13T03:43:33;9.70;;;6.60;;
23169;SDS011;11753;43.144;24.714;2023-03-13T03:44:34;9.50;;;6.30;;
23169;SDS011;11753;43.144;24.714;2023-03-13T03:45:35;8.63;;;6.20;;
23169;SDS011;11753;43.144;24.714;2023-03-13T03:46:37;8.50;;;6.35;;
23169;SDS011;11753;43.144;24.714;2023-03-13T03:47:38;8.35;;;6.63;;
23169;SDS011;11753;43.144;24.714;2023-03-13T03:48:38;7.75;;;6.13;;
23169;SDS011;11753;43.144;24.714;2023-03-13T03:49:39;7.10;;;6.15;;
23169;SDS011;11753;43.144;24.714;2023-03-13T03:50:40;8.00;;;6.15;;
23169;SDS011;11753;43.144;24.714;2023-03-13T03:51:41;7.15;;;6.00;;
23169;SDS011;11753;43.144;24.714;2023-03-13T03:52:42;8.48;;;6.50;;
23169;SDS011;11753;43.144;24.714;2023-03-13T03:53:42;7.28;;;5.65;;
23169;SDS011;11753;43.144;24.714;2023-03-13T03:54:45;8.45;;;5.80;;
23169;SDS011;11753;43.144;24.714;2023-03-13T03:55:46;8.27;;;6.20;;
23169;SDS011;11753;43.144;24.714;2023-03-13T03:56:47;9.10;;;6.60;;
23169;SDS011;11753;43.144;24.714;2023-03-13T03:57:48;8.02;;;6.15;;
23169;SDS011;11753;43.144;24.714;2023-03-13T03:58:49;8.82;;;6.60;;
23169;SDS011;11753;43.144;24.714;2023-03-13T03:59:50;8.93;;;6.45;;
23169;SDS011;11753;43.144;24.714;2023-03-13T04:00:51;8.68;;;6.30;;
23169;SDS011;11753;43.144;24.714;2023-03-13T04:01:52;8.30;;;6.00;;
23169;SDS011;11753;43.144;24.714;2023-03-13T04:02:53;8.10;;;5.85;;
23169;SDS011;11753;43.144;24.714;2023-03-13T04:03:55;7.78;;;6.10;;
23169;SDS011;11753;43.144;24.714;2023-03-13T04:04:56;7.97;;;6.20;;
23169;SDS011;11753;43.144;24.714;2023-03-13T04:05:56;9.32;;;6.18;;
23169;SDS011;11753;43.144;24.714;2023-03-13T04:06:57;8.25;;;6.10;;
23169;SDS011;11753;43.144;24.714;2023-03-13T04:07:58;9.68;;;6.45;;
23169;SDS011;11753;43.144;24.714;2023-03-13T04:08:59;7.85;;;6.10;;
23169;SDS011;11753;43.144;24.714;2023-03-13T04:10:00;8.93;;;5.68;;
23169;SDS011;11753;43.144;24.714;2023-03-13T04:11:02;10.00;;;5.80;;
23169;SDS011;11753;43.144;24.714;2023-03-13T04:12:03;8.15;;;6.10;;
23169;SDS011;11753;43.144;24.714;2023-03-13T04:13:04;9.75;;;6.15;;
23169;SDS011;11753;43.144;24.714;2023-03-13T04:14:05;8.82;;;6.05;;
23169;SDS011;11753;43.144;24.714;2023-03-13T04:15:06;8.43;;;5.95;;
23169;SDS011;11753;43.144;24.714;2023-03-13T04:16:07;6.80;;;5.43;;
23169;SDS011;11753;43.144;24.714;2023-03-13T04:17:08;7.80;;;5.53;;
23169;SDS011;11753;43.144;24.714;2023-03-13T04:18:09;7.38;;;5.85;;
23169;SDS011;11753;43.144;24.714;2023-03-13T04:19:10;10.02;;;6.88;;
23169;SDS011;11753;43.144;24.714;2023-03-13T04:20:11;11.90;;;8.60;;
23169;SDS011;11753;43.144;24.714;2023-03-13T04:21:13;13.50;;;9.80;;
23169;SDS011;11753;43.144;24.714;2023-03-13T04:22:14;51.08;;;29.50;;
23169;SDS011;11753;43.144;24.714;2023-03-13T04:23:15;68.30;;;40.05;;
23169;SDS011;11753;43.144;24.714;2023-03-13T04:24:16;34.28;;;21.08;;
23169;SDS011;11753;43.144;24.714;2023-03-13T04:25:17;29.58;;;18.65;;
23169;SDS011;11753;43.144;24.714;2023-03-13T04:26:18;24.55;;;17.58;;
23169;SDS011;11753;43.144;24.714;2023-03-13T04:27:22;26.38;;;18.77;;
23169;SDS011;11753;43.144;24.714;2023-03-13T04:28:23;16.80;;;12.50;;
23169;SDS011;11753;43.144;24.714;2023-03-13T04:29:23;12.88;;;10.95;;
23169;SDS011;11753;43.144;24.714;2023-03-13T04:30:24;11.93;;;9.85;;
23169;SDS011;11753;43.144;24.714;2023-03-13T04:31:25;16.17;;;12.95;;
23169;SDS011;11753;43.144;24.714;2023-03-13T04:32:26;17.50;;;13.40;;
23169;SDS011;11753;43.144;24.714;2023-03-13T04:33:27;13.65;;;11.52;;
23169;SDS011;11753;43.144;24.714;2023-03-13T04:34:28;13.65;;;9.75;;
23169;SDS011;11753;43.144;24.714;2023-03-13T04:35:29;9.48;;;7.18;;
23169;SDS011;11753;43.144;24.714;2023-03-13T04:36:31;11.48;;;7.55;;
23169;SDS011;11753;43.144;24.714;2023-03-13T04:37:32;27.58;;;15.23;;
23169;SDS011;11753;43.144;24.714;2023-03-13T04:38:33;28.77;;;16.40;;
23169;SDS011;11753;43.144;24.714;2023-03-13T04:39:38;27.05;;;18.58;;
23169;SDS011;11753;43.144;24.714;2023-03-13T04:40:39;20.65;;;12.45;;
23169;SDS011;11753;43.144;24.714;2023-03-13T04:41:40;28.33;;;16.92;;
23169;SDS011;11753;43.144;24.714;2023-03-13T04:42:40;20.52;;;11.82;;
23169;SDS011;11753;43.144;24.714;2023-03-13T04:43:41;12.40;;;7.70;;
23169;SDS011;11753;43.144;24.714;2023-03-13T04:44:42;11.20;;;8.27;;
23169;SDS011;11753;43.144;24.714;2023-03-13T04:45:43;23.88;;;16.73;;
23169;SDS011;11753;43.144;24.714;2023-03-13T04:46:44;17.20;;;12.55;;
23169;SDS011;11753;43.144;24.714;2023-03-13T04:47:45;12.25;;;9.88;;
23169;SDS011;11753;43.144;24.714;2023-03-13T04:48:46;11.40;;;8.27;;
23169;SDS011;11753;43.144;24.714;2023-03-13T04:49:50;13.10;;;10.15;;
23169;SDS011;11753;43.144;24.714;2023-03-13T04:50:51;10.85;;;9.32;;
23169;SDS011;11753;43.144;24.714;2023-03-13T04:51:53;13.00;;;10.27;;
23169;SDS011;11753;43.144;24.714;2023-03-13T04:52:53;11.38;;;9.82;;
23169;SDS011;11753;43.144;24.714;2023-03-13T04:53:54;14.77;;;11.98;;
23169;SDS011;11753;43.144;24.714;2023-03-13T04:54:55;14.68;;;12.18;;
23169;SDS011;11753;43.144;24.714;2023-03-13T04:55:56;12.95;;;10.30;;
23169;SDS011;11753;43.144;24.714;2023-03-13T04:56:57;13.90;;;10.65;;
23169;SDS011;11753;43.144;24.714;2023-03-13T04:57:58;15.38;;;12.43;;
23169;SDS011;11753;43.144;24.714;2023-03-13T04:58:58;15.70;;;13.10;;
23169;SDS011;11753;43.144;24.714;2023-03-13T04:59:59;16.40;;;14.05;;
23169;SDS011;11753;43.144;24.714;2023-03-13T05:01:00;21.70;;;17.35;;
23169;SDS011;11753;43.144;24.714;2023-03-13T05:02:01;20.98;;;16.35;;
23169;SDS011;11753;43.144;24.714;2023-03-13T05:03:02;17.05;;;12.45;;
23169;SDS011;11753;43.144;24.714;2023-03-13T05:04:03;13.93;;;11.10;;
23169;SDS011;11753;43.144;24.714;2023-03-13T05:05:04;13.25;;;8.98;;
23169;SDS011;11753;43.144;24.714;2023-03-13T05:06:06;10.68;;;8.48;;
23169;SDS011;11753;43.144;24.714;2023-03-13T05:07:07;13.27;;;9.95;;
23169;SDS011;11753;43.144;24.714;2023-03-13T05:08:07;12.68;;;9.00;;
23169;SDS011;11753;43.144;24.714;2023-03-13T05:09:10;11.88;;;8.38;;
23169;SDS011;11753;43.144;24.714;2023-03-13T05:10:11;8.90;;;7.47;;
23169;SDS011;11753;43.144;24.714;2023-03-13T05:11:12;12.77;;;8.80;;
23169;SDS011;11753;43.144;24.714;2023-03-13T05:12:13;9.98;;;7.82;;
23169;SDS011;11753;43.144;24.714;2023-03-13T05:13:14;18.40;;;12.45;;
23169;SDS011;11753;43.144;24.714;2023-03-13T05:14:15;30.33;;;19.33;;
23169;SDS011;11753;43.144;24.714;2023-03-13T05:15:16;61.00;;;29.77;;
23169;SDS011;11753;43.144;24.714;2023-03-13T05:16:17;103.25;;;51.22;;
23169;SDS011;11753;43.144;24.714;2023-03-13T05:17:18;90.57;;;45.92;;
23169;SDS011;11753;43.144;24.714;2023-03-13T05:18:19;79.10;;;39.28;;
23169;SDS011;11753;43.144;24.714;2023-03-13T05:19:19;34.70;;;18.88;;
23169;SDS011;11753;43.144;24.714;2023-03-13T05:20:20;22.00;;;13.68;;
23169;SDS011;11753;43.144;24.714;2023-03-13T05:21:21;22.02;;;13.00;;
23169;SDS011;11753;43.144;24.714;2023-03-13T05:22:22;27.05;;;14.40;;
23169;SDS011;11753;43.144;24.714;2023-03-13T05:23:23;51.03;;;26.20;;
23169;SDS011;11753;43.144;24.714;2023-03-13T05:24:24;85.10;;;42.28;;
23169;SDS011;11753;43.144;24.714;2023-03-13T05:25:25;42.83;;;22.95;;
23169;SDS011;11753;43.144;24.714;2023-03-13T05:26:26;54.95;;;29.70;;
23169;SDS011;11753;43.144;24.714;2023-03-13T05:27:27;31.10;;;19.00;;
23169;SDS011;11753;43.144;24.714;2023-03-13T05:28:29;22.83;;;13.93;;
23169;SDS011;11753;43.144;24.714;2023-03-13T05:29:30;25.80;;;15.52;;
23169;SDS011;11753;43.144;24.714;2023-03-13T05:30:30;18.45;;;13.95;;
23169;SDS011;11753;43.144;24.714;2023-03-13T05:31:31;17.85;;;12.68;;
23169;SDS011;11753;43.144;24.714;2023-03-13T05:32:32;15.77;;;12.02;;
23169;SDS011;11753;43.144;24.714;2023-03-13T05:33:33;13.35;;;9.77;;
23169;SDS011;11753;43.144;24.714;2023-03-13T05:34:34;22.25;;;17.25;;
23169;SDS011;11753;43.144;24.714;2023-03-13T05:35:35;18.10;;;14.95;;
23169;SDS011;11753;43.144;24.714;2023-03-13T05:36:36;15.23;;;12.90;;
23169;SDS011;11753;43.144;24.714;2023-03-13T05:37:37;18.10;;;16.05;;
23169;SDS011;11753;43.144;24.714;2023-03-13T05:38:39;15.93;;;14.00;;
23169;SDS011;11753;43.144;24.714;2023-03-13T05:39:39;15.40;;;10.75;;
23169;SDS011;11753;43.144;24.714;2023-03-13T05:40:40;15.30;;;10.15;;
23169;SDS011;11753;43.144;24.714;2023-03-13T05:41:41;15.55;;;10.88;;
23169;SDS011;11753;43.144;24.714;2023-03-13T05:42:42;16.15;;;11.32;;
23169;SDS011;11753;43.144;24.714;2023-03-13T05:43:43;13.25;;;10.65;;
23169;SDS011;11753;43.144;24.714;2023-03-13T05:44:44;16.63;;;9.90;;
23169;SDS011;11753;43.144;24.714;2023-03-13T05:45:45;11.50;;;8.90;;
23169;SDS011;11753;43.144;24.714;2023-03-13T05:46:46;11.75;;;8.73;;
23169;SDS011;11753;43.144;24.714;2023-03-13T05:47:47;12.35;;;8.25;;
23169;SDS011;11753;43.144;24.714;2023-03-13T05:48:48;11.70;;;9.02;;
23169;SDS011;11753;43.144;24.714;2023-03-13T05:49:49;20.25;;;13.93;;
23169;SDS011;11753;43.144;24.714;2023-03-13T05:50:50;25.50;;;17.00;;
23169;SDS011;11753;43.144;24.714;2023-03-13T05:51:51;23.17;;;15.45;;
23169;SDS011;11753;43.144;24.714;2023-03-13T05:52:52;23.00;;;14.75;;
23169;SDS011;11753;43.144;24.714;2023-03-13T05:53:53;20.10;;;14.60;;
23169;SDS011;11753;43.144;24.714;2023-03-13T05:54:54;16.65;;;12.02;;
23169;SDS011;11753;43.144;24.714;2023-03-13T05:55:55;15.23;;;9.85;;
23169;SDS011;11753;43.144;24.714;2023-03-13T05:56:55;18.60;;;13.25;;
23169;SDS011;11753;43.144;24.714;2023-03-13T05:57:56;13.23;;;9.75;;
23169;SDS011;11753;43.144;24.714;2023-03-13T05:58:57;14.52;;;11.00;;
23169;SDS011;11753;43.144;24.714;2023-03-13T05:59:58;13.32;;;9.60;;
23169;SDS011;11753;43.144;24.714;2023-03-13T06:01:04;13.80;;;10.55;;
23169;SDS011;11753;43.144;24.714;2023-03-13T06:02:06;13.85;;;9.82;;
23169;SDS011;11753;43.144;24.714;2023-03-13T06:03:07;13.77;;;10.18;;
23169;SDS011;11753;43.144;24.714;2023-03-13T06:04:08;12.10;;;8.73;;
23169;SDS011;11753;43.144;24.714;2023-03-13T06:05:09;10.93;;;7.30;;
23169;SDS011;11753;43.144;24.714;2023-03-13T06:06:10;11.20;;;8.13;;
23169;SDS011;11753;43.144;24.714;2023-03-13T06:07:11;12.15;;;8.50;;
23169;SDS011;11753;43.144;24.714;2023-03-13T06:08:12;10.40;;;7.82;;
23169;SDS011;11753;43.144;24.714;2023-03-13T06:09:13;11.75;;;8.00;;
23169;SDS011;11753;43.144;24.714;2023-03-13T06:10:14;11.15;;;8.20;;
23169;SDS011;11753;43.144;24.714;2023-03-13T06:11:14;11.13;;;8.13;;
23169;SDS011;11753;43.144;24.714;2023-03-13T06:12:15;20.00;;;13.48;;
23169;SDS011;11753;43.144;24.714;2023-03-13T06:13:16;13.88;;;10.13;;
23169;SDS011;11753;43.144;24.714;2023-03-13T06:14:17;16.08;;;11.05;;
23169;SDS011;11753;43.144;24.714;2023-03-13T06:15:18;15.20;;;10.45;;